Time;durP1;ratioP1;P1;durP2;ratioP2;P2;SDS_P1;SDS_P2;PMS_P1;PMS_P2;Temp;Humidity;BMP_temperature;BMP_pressure;BME280_temperature;BME280_humidity;BME280_pressure;Samples;Min_cycle;Max_cycle;Signal;HPM_P1;HPM_P2
2022/01/15 00:01:28;;;;;;;;;;;16.90;47.00;;;;;;5076749;28;19953;-63
2022/01/15 00:03:53;;;;;;;;;;;16.90;47.00;;;;;;5094548;28;20300;-63
2022/01/15 00:06:19;;;;;;;;;;;16.90;47.00;;;;;;5093430;28;20156;-63
2022/01/15 00:08:44;;;;;;;;;;;16.90;47.00;;;;;;5094116;28;19912;-63
2022/01/15 00:11:10;;;;;;;;;;;16.90;47.00;;;;;;5094710;28;20003;-63
2022/01/15 00:13:38;;;;;;;;;;;16.80;46.90;;;;;;5094544;28;19915;-63
2022/01/15 00:16:26;;;;;;;;;;;16.80;46.90;;;;;;5094543;28;19908;-63
2022/01/15 00:19:04;;;;;;;;;;;16.80;47.00;;;;;;5094229;28;20504;-63
2022/01/15 00:21:30;;;;;;;;;;;16.80;47.00;;;;;;5093258;28;19912;-63
2022/01/15 00:23:55;;;;;;;;;;;16.80;46.90;;;;;;5093906;28;20386;-63
2022/01/15 00:26:20;;;;;;;;;;;16.80;46.90;;;;;;5094322;28;19920;-63
2022/01/15 00:28:46;;;;;;;;;;;16.80;46.90;;;;;;5094086;28;19927;-63
2022/01/15 00:31:11;;;;;;;;;;;16.80;46.90;;;;;;5092961;28;19999;-63
2022/01/15 00:33:37;;;;;;;;;;;16.80;47.00;;;;;;5094145;28;19908;-63
2022/01/15 00:36:02;;;;;;;;;;;16.80;47.00;;;;;;5094089;28;19915;-63
2022/01/15 00:38:28;;;;;;;;;;;16.80;47.00;;;;;;5094018;28;19931;-63
2022/01/15 00:40:53;;;;;;;;;;;16.80;47.00;;;;;;5094169;28;19957;-63
2022/01/15 00:43:19;;;;;;;;;;;16.70;46.90;;;;;;5094091;28;19955;-63
2022/01/15 00:45:45;;;;;;;;;;;16.80;47.00;;;;;;5093829;28;19916;-64
2022/01/15 00:48:10;;;;;;;;;;;16.80;46.90;;;;;;5093996;28;19909;-64
2022/01/15 00:50:35;;;;;;;;;;;16.80;46.90;;;;;;5093789;28;20276;-64
2022/01/15 00:53:01;;;;;;;;;;;16.80;46.90;;;;;;5093809;28;19908;-64
2022/01/15 00:55:26;;;;;;;;;;;16.70;46.90;;;;;;5093263;28;19911;-64
2022/01/15 00:57:52;;;;;;;;;;;16.70;46.90;;;;;;5093844;28;19908;-63
2022/01/15 01:00:18;;;;;;;;;;;16.70;47.00;;;;;;5093673;28;20003;-64
2022/01/15 01:02:44;;;;;;;;;;;16.70;47.00;;;;;;5092341;28;20385;-64
2022/01/15 01:05:10;;;;;;;;;;;16.70;47.00;;;;;;5093321;28;19916;-64
2022/01/15 01:07:35;;;;;;;;;;;16.70;47.00;;;;;;5093508;28;19915;-64
2022/01/15 01:10:28;;;;;;;;;;;16.70;47.00;;;;;;5092968;28;19916;-63
2022/01/15 01:21:21;;;;;;;;;;;16.70;47.00;;;;;;5092303;28;19969;-63
2022/01/15 01:23:46;;;;;;;;;;;16.70;46.90;;;;;;5092606;28;19919;-63
2022/01/15 01:26:58;;;;;;;;;;;16.70;46.90;;;;;;5092011;28;19916;-63
2022/01/15 01:29:21;;;;;;;;;;;16.70;46.90;;;;;;5068770;28;20284;-63
2022/01/15 01:31:58;;;;;;;;;;;16.70;46.80;;;;;;5072765;28;19948;-63
2022/01/15 01:34:26;;;;;;;;;;;16.70;46.90;;;;;;5072722;28;19909;-63
2022/01/15 01:37:01;;;;;;;;;;;16.70;47.00;;;;;;5071585;28;19971;-63
2022/01/15 01:39:38;;;;;;;;;;;16.70;47.00;;;;;;5077837;28;20396;-63
2022/01/15 01:42:11;;;;;;;;;;;16.60;46.90;;;;;;5072774;28;20453;-63
2022/01/15 01:44:40;;;;;;;;;;;16.60;46.90;;;;;;5079382;28;19919;-63
2022/01/15 01:47:15;;;;;;;;;;;16.60;46.90;;;;;;5072615;28;20428;-63
2022/01/15 01:49:42;;;;;;;;;;;16.60;46.90;;;;;;5070791;28;19909;-63
2022/01/15 01:52:07;;;;;;;;;;;16.60;46.90;;;;;;5072626;28;20003;-63
2022/01/15 01:54:33;;;;;;;;;;;16.60;47.00;;;;;;5079476;28;20421;-63
2022/01/15 01:56:58;;;;;;;;;;;16.60;46.90;;;;;;5092537;28;19957;-63
2022/01/15 01:59:24;;;;;;;;;;;16.60;46.90;;;;;;5092694;28;19916;-63
2022/01/15 02:01:50;;;;;;;;;;;16.70;46.90;;;;;;5092945;28;19912;-63
2022/01/15 02:04:16;;;;;;;;;;;16.70;46.90;;;;;;5092466;28;19915;-64
2022/01/15 02:06:41;;;;;;;;;;;16.60;46.90;;;;;;5092825;28;20376;-64
2022/01/15 02:09:07;;;;;;;;;;;16.60;46.90;;;;;;5092166;28;19954;-64
2022/01/15 02:11:32;;;;;;;;;;;16.60;46.90;;;;;;5091280;28;19909;-64
2022/01/15 02:13:58;;;;;;;;;;;16.60;46.90;;;;;;5092289;28;19984;-64
2022/01/15 02:16:24;;;;;;;;;;;16.60;46.90;;;;;;5092501;28;19916;-64
2022/01/15 02:18:53;;;;;;;;;;;16.60;46.80;;;;;;5092103;28;19923;-64
2022/01/15 02:24:02;;;;;;;;;;;16.60;46.90;;;;;;5091995;28;20387;-63
2022/01/15 02:26:28;;;;;;;;;;;16.60;46.90;;;;;;5092584;28;19920;-63
2022/01/15 02:28:55;;;;;;;;;;;16.60;46.90;;;;;;5092568;28;19912;-63
2022/01/15 02:31:21;;;;;;;;;;;16.60;46.80;;;;;;5091231;28;19909;-63
2022/01/15 02:33:47;;;;;;;;;;;16.70;46.70;;;;;;5090984;28;19919;-63
2022/01/15 02:36:14;;;;;;;;;;;16.70;46.60;;;;;;5092381;28;19996;-63
2022/01/15 02:38:39;;;;;;;;;;;16.80;46.50;;;;;;5090437;28;20052;-63
2022/01/15 02:41:05;;;;;;;;;;;16.80;46.30;;;;;;5092315;28;20380;-63
2022/01/15 02:43:34;;;;;;;;;;;16.90;46.20;;;;;;5092650;28;19909;-64
2022/01/15 02:46:18;;;;;;;;;;;16.90;46.10;;;;;;5090889;28;19919;-64
2022/01/15 02:48:43;;;;;;;;;;;16.90;46.10;;;;;;5097860;28;20391;-64
2022/01/15 02:51:09;;;;;;;;;;;16.90;46.00;;;;;;5091139;28;19908;-64
2022/01/15 02:53:34;;;;;;;;;;;17.00;46.00;;;;;;5091667;28;20264;-64
2022/01/15 02:56:00;;;;;;;;;;;17.00;46.00;;;;;;5090869;28;19909;-64
2022/01/15 02:58:25;;;;;;;;;;;17.00;45.90;;;;;;5092058;28;19908;-63
2022/01/15 03:00:51;;;;;;;;;;;17.00;45.80;;;;;;5093810;28;19999;-63
2022/01/15 03:03:16;;;;;;;;;;;17.00;45.80;;;;;;5094699;28;19958;-63
2022/01/15 03:05:42;;;;;;;;;;;17.00;45.90;;;;;;5094344;28;19912;-63
2022/01/15 03:08:07;;;;;;;;;;;17.00;45.90;;;;;;5095807;28;20384;-63
2022/01/15 03:10:33;;;;;;;;;;;17.00;45.80;;;;;;5095291;28;19916;-63
2022/01/15 03:12:59;;;;;;;;;;;17.00;45.80;;;;;;5095814;28;20002;-63
2022/01/15 03:15:25;;;;;;;;;;;17.00;45.80;;;;;;5095869;28;20002;-63
2022/01/15 03:17:51;;;;;;;;;;;17.00;45.80;;;;;;5095541;28;20297;-63
2022/01/15 03:20:17;;;;;;;;;;;17.00;45.80;;;;;;5095576;28;19908;-63
2022/01/15 03:22:43;;;;;;;;;;;17.00;45.80;;;;;;5094362;28;19908;-63
2022/01/15 03:25:09;;;;;;;;;;;17.00;45.80;;;;;;5076853;28;19912;-63
2022/01/15 03:27:34;;;;;;;;;;;17.00;45.90;;;;;;5094372;28;19908;-63
2022/01/15 03:29:59;;;;;;;;;;;17.00;45.80;;;;;;5095305;28;19957;-63
2022/01/15 03:32:25;;;;;;;;;;;17.00;45.80;;;;;;5095367;28;19908;-63
2022/01/15 03:34:50;;;;;;;;;;;17.00;45.80;;;;;;5095131;28;19908;-63
2022/01/15 03:37:16;;;;;;;;;;;17.00;45.90;;;;;;5095414;28;19953;-63
2022/01/15 03:39:42;;;;;;;;;;;17.00;45.90;;;;;;5094713;28;20276;-63
2022/01/15 03:42:14;;;;;;;;;;;16.90;45.90;;;;;;5077022;28;19908;-63
2022/01/15 03:44:40;;;;;;;;;;;16.90;45.90;;;;;;5095108;28;19908;-63
2022/01/15 03:47:06;;;;;;;;;;;16.90;45.90;;;;;;5093711;28;20387;-63
2022/01/15 03:49:31;;;;;;;;;;;16.90;45.90;;;;;;5094985;28;20003;-63
2022/01/15 03:51:56;;;;;;;;;;;16.90;46.00;;;;;;5094923;28;19912;-63
2022/01/15 03:54:22;;;;;;;;;;;16.90;46.00;;;;;;5095718;28;19966;-64
2022/01/15 03:56:47;;;;;;;;;;;16.90;46.10;;;;;;5096095;28;19908;-64
2022/01/15 03:59:13;;;;;;;;;;;16.90;46.00;;;;;;5094744;28;20381;-64
2022/01/15 04:01:38;;;;;;;;;;;16.90;46.00;;;;;;5094855;28;20288;-64
2022/01/15 04:04:04;;;;;;;;;;;16.90;46.00;;;;;;5094697;28;20364;-64
2022/01/15 04:06:29;;;;;;;;;;;16.90;46.10;;;;;;5094708;28;20357;-63
2022/01/15 04:08:54;;;;;;;;;;;16.80;46.00;;;;;;5092958;28;19990;-63
2022/01/15 04:11:20;;;;;;;;;;;16.80;46.00;;;;;;5094223;28;19908;-63
2022/01/15 04:13:45;;;;;;;;;;;16.90;46.00;;;;;;5094511;28;19916;-63
2022/01/15 04:16:11;;;;;;;;;;;16.90;46.00;;;;;;5094722;28;19914;-63
2022/01/15 04:18:40;;;;;;;;;;;16.90;46.00;;;;;;5094231;28;19927;-63
2022/01/15 04:21:09;;;;;;;;;;;16.80;46.00;;;;;;5094770;28;19952;-63
2022/01/15 04:23:34;;;;;;;;;;;16.80;46.10;;;;;;5093903;28;19957;-63
2022/01/15 04:26:00;;;;;;;;;;;16.70;46.20;;;;;;5094291;28;19917;-63
2022/01/15 04:28:27;;;;;;;;;;;16.70;46.30;;;;;;5093061;28;19908;-63
2022/01/15 04:30:52;;;;;;;;;;;16.70;46.40;;;;;;5093377;28;19908;-63
2022/01/15 04:33:18;;;;;;;;;;;16.70;46.30;;;;;;5093009;28;19912;-63
2022/01/15 04:35:43;;;;;;;;;;;16.70;46.20;;;;;;5109738;28;19918;-63
2022/01/15 04:38:11;;;;;;;;;;;16.80;46.20;;;;;;5094257;28;19919;-63
2022/01/15 04:40:37;;;;;;;;;;;16.80;46.10;;;;;;5093574;28;19935;-63
2022/01/15 04:43:02;;;;;;;;;;;16.80;46.10;;;;;;5092858;28;19908;-63
2022/01/15 04:45:28;;;;;;;;;;;16.80;46.10;;;;;;5093857;28;19961;-63
2022/01/15 04:47:53;;;;;;;;;;;16.80;46.00;;;;;;5092733;28;20012;-64
2022/01/15 04:50:20;;;;;;;;;;;16.80;46.00;;;;;;5093888;28;19916;-63
2022/01/15 04:52:45;;;;;;;;;;;16.80;45.90;;;;;;5093998;28;19920;-63
2022/01/15 04:55:11;;;;;;;;;;;16.80;45.90;;;;;;5093652;28;20027;-64
2022/01/15 04:57:37;;;;;;;;;;;16.80;45.90;;;;;;5092538;28;20575;-64
2022/01/15 05:00:06;;;;;;;;;;;16.80;45.90;;;;;;5093586;28;19908;-64
2022/01/15 05:02:32;;;;;;;;;;;16.80;45.90;;;;;;5092487;28;19915;-64
2022/01/15 05:04:57;;;;;;;;;;;16.80;46.00;;;;;;5093460;28;19912;-64
2022/01/15 05:07:22;;;;;;;;;;;16.80;46.00;;;;;;5093844;28;19912;-64
2022/01/15 05:09:48;;;;;;;;;;;16.80;46.00;;;;;;5074735;28;19912;-64
2022/01/15 05:12:28;;;;;;;;;;;16.80;45.90;;;;;;5093419;28;20006;-64
2022/01/15 05:14:54;;;;;;;;;;;16.80;45.90;;;;;;5093260;28;19912;-64
2022/01/15 05:17:19;;;;;;;;;;;16.80;45.80;;;;;;5091929;28;19916;-63
2022/01/15 05:19:45;;;;;;;;;;;16.80;45.80;;;;;;5092204;28;19997;-63
2022/01/15 05:22:10;;;;;;;;;;;16.80;45.80;;;;;;5093287;28;20003;-63
2022/01/15 05:24:36;;;;;;;;;;;16.80;45.80;;;;;;5091050;28;19908;-63
2022/01/15 05:27:02;;;;;;;;;;;16.80;45.80;;;;;;5093093;28;19916;-63
2022/01/15 05:29:28;;;;;;;;;;;16.80;45.80;;;;;;5093098;28;19912;-63
2022/01/15 05:31:53;;;;;;;;;;;16.80;45.80;;;;;;5093188;28;20391;-63
2022/01/15 05:34:19;;;;;;;;;;;16.80;45.90;;;;;;5092878;28;19912;-63
2022/01/15 05:36:44;;;;;;;;;;;16.80;45.90;;;;;;5093273;28;19953;-63
2022/01/15 05:39:10;;;;;;;;;;;16.80;46.00;;;;;;5092568;28;19909;-63
2022/01/15 05:41:35;;;;;;;;;;;16.80;46.00;;;;;;5092934;28;19915;-63
2022/01/15 05:44:02;;;;;;;;;;;16.80;46.00;;;;;;5092809;28;19908;-63
2022/01/15 05:46:28;;;;;;;;;;;16.70;46.00;;;;;;5092873;28;19923;-63
2022/01/15 05:48:54;;;;;;;;;;;16.70;46.00;;;;;;5092750;28;19944;-63
2022/01/15 05:51:19;;;;;;;;;;;16.70;45.90;;;;;;5092875;28;19951;-63
2022/01/15 05:53:45;;;;;;;;;;;16.70;46.00;;;;;;5074080;28;19912;-63
2022/01/15 05:56:10;;;;;;;;;;;16.80;46.00;;;;;;5092818;28;19911;-63
2022/01/15 05:58:36;;;;;;;;;;;16.70;46.00;;;;;;5092620;28;19954;-63
2022/01/15 06:01:01;;;;;;;;;;;16.70;46.00;;;;;;5091427;28;19915;-63
2022/01/15 06:03:27;;;;;;;;;;;16.70;46.00;;;;;;5092511;28;19982;-64
2022/01/15 06:05:52;;;;;;;;;;;16.70;46.00;;;;;;5092534;28;20391;-64
2022/01/15 06:08:17;;;;;;;;;;;16.70;46.00;;;;;;5091331;28;20272;-63
2022/01/15 06:10:43;;;;;;;;;;;16.70;46.00;;;;;;5092358;28;19912;-63
2022/01/15 06:13:09;;;;;;;;;;;16.70;46.00;;;;;;5092735;28;19935;-63
2022/01/15 06:15:34;;;;;;;;;;;16.70;46.00;;;;;;5092796;28;19908;-63
2022/01/15 06:17:59;;;;;;;;;;;16.70;46.00;;;;;;5092434;28;19926;-63
2022/01/15 06:20:25;;;;;;;;;;;16.70;46.00;;;;;;5092465;28;20322;-63
2022/01/15 06:22:50;;;;;;;;;;;16.70;46.00;;;;;;5091225;28;20310;-63
2022/01/15 06:25:16;;;;;;;;;;;16.70;46.00;;;;;;5090501;28;20026;-63
2022/01/15 06:27:41;;;;;;;;;;;16.70;46.00;;;;;;5092339;28;19908;-63
2022/01/15 06:30:07;;;;;;;;;;;16.70;46.00;;;;;;5091097;28;19927;-63
2022/01/15 06:32:36;;;;;;;;;;;16.70;45.90;;;;;;5092350;28;19914;-63
2022/01/15 06:35:05;;;;;;;;;;;16.70;45.90;;;;;;5093132;28;19914;-63
2022/01/15 06:37:31;;;;;;;;;;;16.80;45.90;;;;;;5095276;28;19908;-63
2022/01/15 06:39:56;;;;;;;;;;;16.70;45.80;;;;;;5095925;28;19970;-63
2022/01/15 06:42:21;;;;;;;;;;;16.70;45.90;;;;;;5095269;28;19948;-63
2022/01/15 06:44:47;;;;;;;;;;;16.70;45.90;;;;;;5096266;28;19912;-63
2022/01/15 06:47:12;;;;;;;;;;;16.70;46.00;;;;;;5096257;28;19919;-63
2022/01/15 06:49:38;;;;;;;;;;;16.70;46.10;;;;;;5096297;28;19957;-63
2022/01/15 06:52:03;;;;;;;;;;;16.70;46.00;;;;;;5129061;27;19912;-63
2022/01/15 06:54:29;;;;;;;;;;;16.70;46.00;;;;;;5095598;28;19912;-63
2022/01/15 06:56:54;;;;;;;;;;;16.70;46.00;;;;;;5096422;28;19908;-63
2022/01/15 06:59:20;;;;;;;;;;;16.70;46.00;;;;;;5095972;28;20368;-63
2022/01/15 07:01:45;;;;;;;;;;;16.70;46.00;;;;;;5111770;28;20288;-63
2022/01/15 07:04:10;;;;;;;;;;;16.70;45.90;;;;;;5095792;28;19908;-63
2022/01/15 07:06:36;;;;;;;;;;;16.70;46.00;;;;;;5095912;28;19948;-63
2022/01/15 07:09:01;;;;;;;;;;;16.70;46.00;;;;;;5095210;28;19908;-63
2022/01/15 07:11:27;;;;;;;;;;;16.70;46.00;;;;;;5095968;28;19944;-63
2022/01/15 07:13:53;;;;;;;;;;;16.70;45.90;;;;;;5094414;28;20276;-63
2022/01/15 07:16:18;;;;;;;;;;;16.70;46.00;;;;;;5095684;28;19908;-64
2022/01/15 07:18:43;;;;;;;;;;;16.70;46.00;;;;;;5095406;28;19920;-64
2022/01/15 07:21:10;;;;;;;;;;;16.70;46.00;;;;;;5095588;28;20015;-64
2022/01/15 07:23:35;;;;;;;;;;;16.70;46.00;;;;;;5095179;28;20386;-64
2022/01/15 07:26:01;;;;;;;;;;;16.70;46.00;;;;;;5095507;28;19920;-64
2022/01/15 07:28:29;;;;;;;;;;;16.70;46.00;;;;;;5095323;28;19915;-64
2022/01/15 07:30:55;;;;;;;;;;;16.60;45.90;;;;;;5095463;28;19908;-64
2022/01/15 07:33:20;;;;;;;;;;;16.60;46.00;;;;;;5128287;27;19915;-64
2022/01/15 07:35:45;;;;;;;;;;;16.60;46.00;;;;;;5128134;27;19908;-64
2022/01/15 07:38:12;;;;;;;;;;;16.60;46.30;;;;;;5095292;28;19961;-64
2022/01/15 07:40:37;;;;;;;;;;;16.60;46.00;;;;;;5094994;28;19912;-64
2022/01/15 07:43:03;;;;;;;;;;;16.60;46.00;;;;;;5095098;28;20395;-64
2022/01/15 07:45:28;;;;;;;;;;;16.60;46.00;;;;;;5093332;28;20391;-64
2022/01/15 07:47:54;;;;;;;;;;;16.60;46.00;;;;;;5094718;28;20396;-64
2022/01/15 07:50:23;;;;;;;;;;;16.60;46.00;;;;;;5095062;28;20293;-64
2022/01/15 07:52:49;;;;;;;;;;;16.60;46.00;;;;;;5093859;28;20322;-64
2022/01/15 07:55:14;;;;;;;;;;;16.60;46.00;;;;;;5093074;28;19953;-64
2022/01/15 07:57:43;;;;;;;;;;;16.60;46.00;;;;;;5093616;28;20399;-64
2022/01/15 08:00:10;;;;;;;;;;;16.60;45.90;;;;;;5094510;28;19965;-63
2022/01/15 08:02:35;;;;;;;;;;;16.60;45.90;;;;;;5095013;28;20006;-63
2022/01/15 08:05:01;;;;;;;;;;;16.60;46.10;;;;;;5093421;28;19954;-63
2022/01/15 08:07:26;;;;;;;;;;;16.60;46.10;;;;;;5127540;27;20481;-63
2022/01/15 08:09:52;;;;;;;;;;;16.60;46.10;;;;;;5094125;28;20280;-63
2022/01/15 08:12:19;;;;;;;;;;;16.60;46.10;;;;;;5094606;28;19919;-63
2022/01/15 08:14:45;;;;;;;;;;;16.60;46.10;;;;;;5094308;28;19908;-64
2022/01/15 08:17:11;;;;;;;;;;;16.60;46.10;;;;;;5093091;28;20276;-64
2022/01/15 08:19:36;;;;;;;;;;;16.60;46.10;;;;;;5094464;28;19944;-64
2022/01/15 08:22:01;;;;;;;;;;;16.60;46.10;;;;;;5094410;28;19912;-64
2022/01/15 08:24:27;;;;;;;;;;;16.60;46.10;;;;;;5094042;28;19927;-64
2022/01/15 08:26:52;;;;;;;;;;;16.60;46.10;;;;;;5093156;28;19987;-63
2022/01/15 08:29:18;;;;;;;;;;;16.60;46.10;;;;;;5094112;28;19940;-63
2022/01/15 08:31:44;;;;;;;;;;;16.60;46.00;;;;;;5093067;28;19967;-63
2022/01/15 08:34:09;;;;;;;;;;;16.60;46.00;;;;;;5092766;28;19908;-63
2022/01/15 08:36:36;;;;;;;;;;;16.60;46.00;;;;;;5094202;28;20265;-63
2022/01/15 08:39:05;;;;;;;;;;;16.60;46.00;;;;;;5092351;28;19908;-63
2022/01/15 08:41:30;;;;;;;;;;;16.60;46.00;;;;;;5092793;28;20376;-63
2022/01/15 08:43:56;;;;;;;;;;;16.60;46.00;;;;;;5092764;28;19908;-63
2022/01/15 08:46:21;;;;;;;;;;;16.60;46.00;;;;;;5093929;28;19957;-63
2022/01/15 08:48:47;;;;;;;;;;;16.60;46.00;;;;;;5092497;28;19912;-63
2022/01/15 08:51:12;;;;;;;;;;;16.60;46.10;;;;;;5094052;28;20002;-63
2022/01/15 08:53:38;;;;;;;;;;;16.60;46.00;;;;;;5092081;28;19925;-63
2022/01/15 08:56:04;;;;;;;;;;;16.60;46.00;;;;;;5093743;28;19912;-63
2022/01/15 08:58:29;;;;;;;;;;;16.60;46.10;;;;;;5092445;28;19908;-63
2022/01/15 09:00:55;;;;;;;;;;;16.50;46.10;;;;;;5075516;28;19914;-63
2022/01/15 09:03:21;;;;;;;;;;;16.50;46.10;;;;;;5093627;28;19908;-63
2022/01/15 09:05:47;;;;;;;;;;;16.50;46.10;;;;;;5092211;28;19912;-63
2022/01/15 09:08:12;;;;;;;;;;;16.50;46.10;;;;;;5092336;28;19915;-63
2022/01/15 09:10:41;;;;;;;;;;;16.50;46.10;;;;;;5093078;28;19912;-63
2022/01/15 09:13:10;;;;;;;;;;;16.50;46.10;;;;;;5092391;28;20326;-63
2022/01/15 09:15:36;;;;;;;;;;;16.50;46.00;;;;;;5091985;28;19976;-63
2022/01/15 09:18:01;;;;;;;;;;;16.50;46.10;;;;;;5093145;28;19960;-63
2022/01/15 09:20:27;;;;;;;;;;;16.50;46.00;;;;;;5093147;28;19915;-63
2022/01/15 09:22:52;;;;;;;;;;;16.60;46.10;;;;;;5093018;28;19916;-63
2022/01/15 09:25:17;;;;;;;;;;;16.60;46.10;;;;;;5092802;28;19912;-63
2022/01/15 09:30:27;;;;;;;;;;;16.50;46.10;;;;;;5093112;28;19996;-63
2022/01/15 09:32:53;;;;;;;;;;;16.50;46.10;;;;;;5091898;28;20344;-63
2022/01/15 09:35:23;;;;;;;;;;;16.50;46.10;;;;;;5091631;28;19912;-63
2022/01/15 09:37:49;;;;;;;;;;;16.50;46.10;;;;;;5074824;28;19912;-63
2022/01/15 09:40:15;;;;;;;;;;;16.50;46.10;;;;;;5091417;28;19915;-63
2022/01/15 09:42:40;;;;;;;;;;;16.50;46.10;;;;;;5108692;28;19908;-63
2022/01/15 09:45:06;;;;;;;;;;;16.50;46.10;;;;;;5092925;28;19983;-63
2022/01/15 09:47:32;;;;;;;;;;;16.50;46.10;;;;;;5092761;28;20061;-63
2022/01/15 09:49:57;;;;;;;;;;;16.50;46.10;;;;;;5091355;28;19912;-63
2022/01/15 09:52:23;;;;;;;;;;;16.50;46.10;;;;;;5092810;28;20312;-63
2022/01/15 09:54:48;;;;;;;;;;;16.50;46.10;;;;;;5090980;28;19935;-63
2022/01/15 09:57:14;;;;;;;;;;;16.50;46.10;;;;;;5091472;28;19912;-63
2022/01/15 09:59:39;;;;;;;;;;;16.50;46.20;;;;;;5091300;28;20394;-63
2022/01/15 10:02:05;;;;;;;;;;;16.50;46.10;;;;;;5092746;28;20288;-63
2022/01/15 10:04:32;;;;;;;;;;;16.50;46.20;;;;;;5125536;27;19908;-63
2022/01/15 10:07:07;;;;;;;;;;;16.50;46.20;;;;;;5092491;28;19916;-64
2022/01/15 10:09:32;;;;;;;;;;;16.50;46.10;;;;;;5091755;28;19908;-64
2022/01/15 10:11:58;;;;;;;;;;;16.50;46.10;;;;;;5092558;28;20293;-64
2022/01/15 10:14:30;;;;;;;;;;;16.50;46.10;;;;;;5092346;28;19919;-64
2022/01/15 10:16:56;;;;;;;;;;;16.50;46.10;;;;;;5091180;28;20001;-63
2022/01/15 10:19:31;;;;;;;;;;;16.50;46.10;;;;;;5091174;28;19912;-63
2022/01/15 10:22:11;;;;;;;;;;;16.50;46.20;;;;;;5092590;28;19908;-63
2022/01/15 10:24:43;;;;;;;;;;;16.50;46.30;;;;;;5091853;28;20308;-63
2022/01/15 10:27:18;;;;;;;;;;;16.50;46.40;;;;;;5092261;28;19970;-63
2022/01/15 10:29:49;;;;;;;;;;;16.50;46.40;;;;;;5092240;28;19958;-63
2022/01/15 10:32:15;;;;;;;;;;;16.50;46.30;;;;;;5092286;28;19912;-63
2022/01/15 10:34:42;;;;;;;;;;;16.50;46.40;;;;;;5090860;28;20418;-63
2022/01/15 10:37:14;;;;;;;;;;;16.50;46.40;;;;;;5092328;28;19912;-64
2022/01/15 10:39:40;;;;;;;;;;;16.50;46.40;;;;;;5090467;28;19908;-64
2022/01/15 10:42:13;;;;;;;;;;;16.50;46.30;;;;;;5091010;28;19991;-64
2022/01/15 10:44:38;;;;;;;;;;;16.50;46.30;;;;;;5092070;28;19965;-64
2022/01/15 10:47:05;;;;;;;;;;;16.50;46.30;;;;;;5092111;28;19916;-64
2022/01/15 10:49:30;;;;;;;;;;;16.50;46.40;;;;;;5090801;28;19915;-64
2022/01/15 10:52:06;;;;;;;;;;;16.50;46.40;;;;;;5092079;28;19908;-64
2022/01/15 10:54:31;;;;;;;;;;;16.50;46.40;;;;;;5090365;28;19991;-64
2022/01/15 10:57:07;;;;;;;;;;;16.50;46.40;;;;;;5090968;28;20006;-64
2022/01/15 10:59:32;;;;;;;;;;;16.50;46.40;;;;;;5092044;28;19915;-63
2022/01/15 11:02:17;;;;;;;;;;;16.50;46.40;;;;;;5090753;28;19912;-63
2022/01/15 11:04:42;;;;;;;;;;;16.50;46.40;;;;;;5091934;28;19908;-64
2022/01/15 11:07:11;;;;;;;;;;;16.40;46.40;;;;;;5091886;28;19954;-64
2022/01/15 11:09:37;;;;;;;;;;;16.50;46.40;;;;;;5090313;28;19908;-63
2022/01/15 11:12:04;;;;;;;;;;;16.50;46.40;;;;;;5091998;28;20406;-63
2022/01/15 11:14:30;;;;;;;;;;;16.50;46.40;;;;;;5091770;28;19915;-63
2022/01/15 11:16:57;;;;;;;;;;;16.50;46.40;;;;;;5091806;28;19998;-63
2022/01/15 11:19:22;;;;;;;;;;;16.50;46.40;;;;;;5090582;28;19916;-64
2022/01/15 11:21:47;;;;;;;;;;;16.50;46.40;;;;;;5092517;28;19934;-64
2022/01/15 11:24:13;;;;;;;;;;;16.50;46.40;;;;;;5093878;28;19912;-64
2022/01/15 11:26:38;;;;;;;;;;;16.50;46.30;;;;;;5094248;28;20288;-64
2022/01/15 11:29:04;;;;;;;;;;;16.50;46.30;;;;;;5095447;28;20350;-64
2022/01/15 11:31:30;;;;;;;;;;;16.50;46.40;;;;;;5095536;28;20318;-64
2022/01/15 11:33:57;;;;;;;;;;;16.50;46.40;;;;;;5095386;28;20379;-64
2022/01/15 11:36:30;;;;;;;;;;;16.50;46.40;;;;;;5094147;28;19915;-64
2022/01/15 11:38:57;;;;;;;;;;;16.50;46.40;;;;;;5076643;28;20292;-64
2022/01/15 11:41:22;;;;;;;;;;;16.50;46.40;;;;;;5095361;28;19915;-64
2022/01/15 11:43:49;;;;;;;;;;;16.50;46.40;;;;;;5095062;28;20292;-64
2022/01/15 11:46:24;;;;;;;;;;;16.50;46.40;;;;;;5094065;28;19978;-64
2022/01/15 11:48:50;;;;;;;;;;;16.50;46.40;;;;;;5076759;28;19912;-64
2022/01/15 11:51:17;;;;;;;;;;;16.50;46.40;;;;;;5093943;28;19915;-63
2022/01/15 11:53:49;;;;;;;;;;;16.50;46.50;;;;;;5094451;28;19908;-63
2022/01/15 11:56:15;;;;;;;;;;;16.50;46.50;;;;;;5094092;28;19908;-63
2022/01/15 11:58:41;;;;;;;;;;;16.50;46.40;;;;;;5094780;28;20371;-63
2022/01/15 12:01:06;;;;;;;;;;;16.50;46.40;;;;;;5094899;28;20010;-63
2022/01/15 12:03:38;;;;;;;;;;;16.50;46.40;;;;;;5094986;28;19915;-63
2022/01/15 12:06:03;;;;;;;;;;;16.50;46.50;;;;;;5093568;28;19912;-63
2022/01/15 12:08:30;;;;;;;;;;;16.40;46.40;;;;;;5094444;28;20326;-63
2022/01/15 12:10:56;;;;;;;;;;;16.50;46.40;;;;;;5093592;28;19915;-63
2022/01/15 12:13:34;;;;;;;;;;;16.50;46.40;;;;;;5093600;28;19952;-63
2022/01/15 12:16:26;;;;;;;;;;;16.50;46.40;;;;;;5094871;28;19908;-63
2022/01/15 12:18:52;;;;;;;;;;;16.50;46.60;;;;;;5095483;28;20269;-63
2022/01/15 12:21:36;;;;;;;;;;;16.50;46.50;;;;;;5093475;28;19919;-63
2022/01/15 12:24:20;;;;;;;;;;;16.50;46.60;;;;;;5094006;28;19919;-63
2022/01/15 12:26:58;;;;;;;;;;;16.50;46.60;;;;;;5094293;28;19916;-63
2022/01/15 12:29:24;;;;;;;;;;;16.50;46.70;;;;;;5094343;28;20269;-63
2022/01/15 12:31:49;;;;;;;;;;;16.40;46.70;;;;;;5094005;28;19908;-63
2022/01/15 12:34:23;;;;;;;;;;;16.50;46.80;;;;;;5094166;28;19908;-63
2022/01/15 12:36:48;;;;;;;;;;;16.40;46.70;;;;;;5094937;28;19916;-64
2022/01/15 12:39:14;;;;;;;;;;;16.50;46.70;;;;;;5093921;28;20386;-63
2022/01/15 12:41:47;;;;;;;;;;;16.50;46.70;;;;;;5092918;28;20245;-63
2022/01/15 12:44:13;;;;;;;;;;;16.50;46.70;;;;;;5092698;28;19908;-63
2022/01/15 12:46:39;;;;;;;;;;;16.40;46.60;;;;;;5092787;28;20010;-63
2022/01/15 12:49:07;;;;;;;;;;;16.50;46.60;;;;;;5092585;28;19908;-63
2022/01/15 12:51:32;;;;;;;;;;;16.50;46.70;;;;;;5093877;28;20042;-63
2022/01/15 12:53:59;;;;;;;;;;;16.50;46.60;;;;;;5093396;28;20011;-63
2022/01/15 12:56:27;;;;;;;;;;;16.50;46.60;;;;;;5094080;28;19930;-63
2022/01/15 12:58:52;;;;;;;;;;;16.50;47.30;;;;;;5092643;28;19908;-63
2022/01/15 13:01:22;;;;;;;;;;;16.50;46.60;;;;;;5092469;28;19981;-63
2022/01/15 13:03:47;;;;;;;;;;;16.50;46.60;;;;;;5092243;28;19908;-63
2022/01/15 13:06:13;;;;;;;;;;;16.50;46.60;;;;;;5093517;28;20019;-63
2022/01/15 13:08:41;;;;;;;;;;;16.50;46.60;;;;;;5125862;27;20007;-63
2022/01/15 13:13:40;;;;;;;;;;;16.50;46.60;;;;;;5093786;28;19965;-63
2022/01/15 13:16:08;;;;;;;;;;;16.50;46.60;;;;;;5075224;28;19915;-63
2022/01/15 13:18:34;;;;;;;;;;;16.50;46.60;;;;;;5093347;28;19959;-64
2022/01/15 13:21:00;;;;;;;;;;;16.50;46.70;;;;;;5093444;28;20007;-64
2022/01/15 13:23:33;;;;;;;;;;;16.50;46.70;;;;;;5093289;28;20407;-63
2022/01/15 13:25:58;;;;;;;;;;;16.50;46.70;;;;;;5093185;28;19920;-63
2022/01/15 13:28:24;;;;;;;;;;;16.50;46.70;;;;;;5093219;28;19961;-63
2022/01/15 13:30:49;;;;;;;;;;;16.50;46.70;;;;;;5126286;27;19908;-63
2022/01/15 13:33:15;;;;;;;;;;;16.50;46.70;;;;;;5092010;28;19908;-63
2022/01/15 13:35:41;;;;;;;;;;;16.50;46.70;;;;;;5093076;28;19995;-63
2022/01/15 13:38:10;;;;;;;;;;;16.50;46.80;;;;;;5093099;28;20360;-63
2022/01/15 13:40:40;;;;;;;;;;;16.40;46.80;;;;;;5092658;28;20316;-63
2022/01/15 13:43:06;;;;;;;;;;;16.40;46.80;;;;;;5091684;28;19915;-63
2022/01/15 13:45:33;;;;;;;;;;;16.40;46.90;;;;;;5092147;28;19916;-63
2022/01/15 13:48:09;;;;;;;;;;;16.30;46.90;;;;;;5091726;28;19916;-63
2022/01/15 13:53:28;;;;;;;;;;;16.40;47.00;;;;;;5091869;28;20394;-63
2022/01/15 13:56:07;;;;;;;;;;;16.40;47.00;;;;;;5091739;28;19919;-63
2022/01/15 13:58:32;;;;;;;;;;;16.40;47.00;;;;;;5092463;28;20364;-63
2022/01/15 14:01:13;;;;;;;;;;;16.30;46.90;;;;;;5092581;28;19912;-63
2022/01/15 14:03:39;;;;;;;;;;;16.40;47.00;;;;;;5092508;28;19916;-63
2022/01/15 14:06:04;;;;;;;;;;;16.40;47.00;;;;;;5092511;28;20295;-63
2022/01/15 14:08:30;;;;;;;;;;;16.40;47.00;;;;;;5092067;28;20362;-63
2022/01/15 14:10:55;;;;;;;;;;;16.40;47.00;;;;;;5091387;28;19913;-63
2022/01/15 14:13:26;;;;;;;;;;;16.40;47.00;;;;;;5092570;28;19915;-63
2022/01/15 14:15:52;;;;;;;;;;;16.30;46.90;;;;;;5092628;28;19937;-64
2022/01/15 14:18:19;;;;;;;;;;;16.30;46.90;;;;;;5125062;27;19916;-64
2022/01/15 14:20:54;;;;;;;;;;;16.30;46.90;;;;;;5125149;27;19908;-63
2022/01/15 14:23:39;;;;;;;;;;;16.30;46.90;;;;;;5098010;28;19908;-63
2022/01/15 14:26:17;;;;;;;;;;;16.30;46.90;;;;;;5091296;28;20002;-63
2022/01/15 14:28:43;;;;;;;;;;;16.40;47.00;;;;;;5091021;28;20307;-63
2022/01/15 14:31:08;;;;;;;;;;;16.30;46.90;;;;;;5092646;28;19966;-63
2022/01/15 14:33:34;;;;;;;;;;;16.30;46.90;;;;;;5091005;28;20291;-63
2022/01/15 14:35:59;;;;;;;;;;;16.30;46.90;;;;;;5092413;28;19973;-63